EDW58T LSZH-LEPA
Flight info
| Callsign | EDW58T |
|---|---|
| Flight time | 1h 14m |
| Altitude | 37000 |
| Route | VEBIT T50 ROTOS Z669 ULMES DCT VADAR DCT GEVEA DCT INCUS DCT BALSI DCT RETNO DCT TUPOX DCT MTG DCT DIVKO DCT VATIR DCT PIVUS DCT BODEQ DCT VERSO L129 LUNIK |
| Aircraft | A320/M-SDE2E3FGIRWXY/L |
Departure
| Time | 2026-05-01 09:33 |
|---|---|
| Airport | Zürich Airport (LSZH) |
Arrival
| Time | 2026-05-01 10:48 |
|---|---|
| Airport | Palma de Mallorca Airport (LEPA) |
| Time | Latitude | Longitude | Altitude | Speed | Heading |
|---|---|---|---|---|---|
| 2026-05-01 09:00 | 47.44278 | 8.56067 | 1398 ft | 0 kts | 245° |
| 2026-05-01 09:21 | 47.44280 | 8.56074 | 1408 ft | 4 kts | 246° |
| 2026-05-01 09:21 | 47.44290 | 8.56111 | 1406 ft | 4 kts | 258° |
| 2026-05-01 09:21 | 47.44283 | 8.56158 | 1405 ft | 1 kts | 335° |
| 2026-05-01 09:25 | 47.44358 | 8.56097 | 1399 ft | 12 kts | 324° |
| 2026-05-01 09:25 | 47.44500 | 8.55985 | 1402 ft | 12 kts | 334° |
| 2026-05-01 09:26 | 47.44570 | 8.55936 | 1403 ft | 10 kts | 335° |
| 2026-05-01 09:26 | 47.44688 | 8.55856 | 1398 ft | 9 kts | 335° |
| 2026-05-01 09:26 | 47.44740 | 8.55821 | 1402 ft | 8 kts | 335° |
| 2026-05-01 09:27 | 47.44926 | 8.55694 | 1396 ft | 21 kts | 335° |
| 2026-05-01 09:27 | 47.45062 | 8.55601 | 1405 ft | 21 kts | 335° |
| 2026-05-01 09:27 | 47.45195 | 8.55516 | 1406 ft | 21 kts | 354° |
| 2026-05-01 09:28 | 47.45331 | 8.55526 | 1406 ft | 19 kts | 0° |
| 2026-05-01 09:28 | 47.45456 | 8.55451 | 1411 ft | 21 kts | 334° |
| 2026-05-01 09:28 | 47.45593 | 8.55358 | 1406 ft | 23 kts | 334° |
| 2026-05-01 09:28 | 47.45668 | 8.55427 | 1401 ft | 15 kts | 95° |
| 2026-05-01 09:29 | 47.45651 | 8.55698 | 1405 ft | 10 kts | 95° |
| 2026-05-01 09:29 | 47.45645 | 8.55782 | 1411 ft | 6 kts | 95° |
| 2026-05-01 09:30 | 47.45639 | 8.55879 | 1411 ft | 8 kts | 95° |
| 2026-05-01 09:30 | 47.45631 | 8.55996 | 1414 ft | 15 kts | 95° |
| 2026-05-01 09:30 | 47.45595 | 8.56438 | 1414 ft | 27 kts | 97° |
| 2026-05-01 09:31 | 47.45577 | 8.56693 | 1418 ft | 23 kts | 96° |
| 2026-05-01 09:31 | 47.45563 | 8.56915 | 1420 ft | 18 kts | 95° |
| 2026-05-01 09:31 | 47.45661 | 8.56979 | 1424 ft | 10 kts | 293° |
| 2026-05-01 09:32 | 47.45665 | 8.56954 | 1424 ft | 0 kts | 278° |
| 2026-05-01 09:32 | 47.45669 | 8.56908 | 1423 ft | 17 kts | 277° |
| 2026-05-01 09:32 | 47.45709 | 8.56379 | 1416 ft | 89 kts | 275° |
| 2026-05-01 09:33 | 47.45793 | 8.55154 | 1406 ft | 149 kts | 276° |
| 2026-05-01 09:33 | 47.45896 | 8.53586 | 1928 ft | 151 kts | 277° |
| 2026-05-01 09:33 | 47.46094 | 8.50448 | 2853 ft | 170 kts | 276° |
| 2026-05-01 09:34 | 47.46194 | 8.48627 | 3168 ft | 186 kts | 268° |
| 2026-05-01 09:34 | 47.45772 | 8.46848 | 3644 ft | 188 kts | 228° |
| 2026-05-01 09:34 | 47.43739 | 8.44085 | 4379 ft | 218 kts | 226° |
| 2026-05-01 09:35 | 47.42709 | 8.42286 | 4654 ft | 242 kts | 232° |
| 2026-05-01 09:35 | 47.40583 | 8.38014 | 5980 ft | 266 kts | 234° |
| 2026-05-01 09:35 | 47.39493 | 8.35784 | 6790 ft | 271 kts | 233° |
| 2026-05-01 09:36 | 47.38466 | 8.33430 | 7566 ft | 277 kts | 244° |
| 2026-05-01 09:36 | 47.37677 | 8.30809 | 8328 ft | 282 kts | 243° |
| 2026-05-01 09:36 | 47.36790 | 8.28192 | 9089 ft | 288 kts | 242° |
| 2026-05-01 09:36 | 47.35839 | 8.25552 | 9865 ft | 294 kts | 240° |
| 2026-05-01 09:37 | 47.34857 | 8.22875 | 10587 ft | 300 kts | 240° |
| 2026-05-01 09:37 | 47.32730 | 8.17063 | 11070 ft | 345 kts | 240° |
| 2026-05-01 09:37 | 47.31585 | 8.13892 | 11588 ft | 354 kts | 241° |
| 2026-05-01 09:38 | 47.29274 | 8.07423 | 12963 ft | 364 kts | 242° |
| 2026-05-01 09:38 | 47.28078 | 8.04057 | 13669 ft | 368 kts | 242° |
| 2026-05-01 09:38 | 47.26909 | 8.00741 | 14315 ft | 372 kts | 244° |
| 2026-05-01 09:39 | 47.24913 | 7.93633 | 15521 ft | 379 kts | 247° |
| 2026-05-01 09:39 | 47.23912 | 7.90028 | 16142 ft | 382 kts | 247° |
| 2026-05-01 09:39 | 47.22898 | 7.86391 | 16752 ft | 386 kts | 246° |
| 2026-05-01 09:40 | 47.21868 | 7.82731 | 17344 ft | 389 kts | 246° |
| 2026-05-01 09:40 | 47.19778 | 7.75321 | 18515 ft | 396 kts | 245° |
| 2026-05-01 09:40 | 47.18490 | 7.71745 | 19031 ft | 398 kts | 236° |
| 2026-05-01 09:41 | 47.16819 | 7.68486 | 19548 ft | 400 kts | 230° |
| 2026-05-01 09:41 | 47.13330 | 7.62045 | 20582 ft | 406 kts | 231° |
| 2026-05-01 09:41 | 47.11567 | 7.58783 | 21087 ft | 410 kts | 231° |
| 2026-05-01 09:42 | 47.09787 | 7.55488 | 21594 ft | 413 kts | 231° |
| 2026-05-01 09:42 | 47.07996 | 7.52178 | 22098 ft | 416 kts | 231° |
| 2026-05-01 09:42 | 47.04364 | 7.45483 | 23048 ft | 422 kts | 231° |
| 2026-05-01 09:43 | 47.00683 | 7.38701 | 23946 ft | 428 kts | 231° |
| 2026-05-01 09:43 | 46.98821 | 7.35289 | 24341 ft | 430 kts | 230° |
| 2026-05-01 09:43 | 46.96940 | 7.31869 | 24729 ft | 432 kts | 230° |
| 2026-05-01 09:44 | 46.93149 | 7.24984 | 25461 ft | 436 kts | 230° |
| 2026-05-01 09:44 | 46.91244 | 7.21515 | 25812 ft | 439 kts | 230° |
| 2026-05-01 09:44 | 46.89333 | 7.18029 | 26175 ft | 441 kts | 231° |
| 2026-05-01 09:45 | 46.87411 | 7.14526 | 26518 ft | 443 kts | 230° |
| 2026-05-01 09:45 | 46.83538 | 7.07477 | 27191 ft | 447 kts | 231° |
| 2026-05-01 09:45 | 46.81589 | 7.03935 | 27524 ft | 449 kts | 230° |
| 2026-05-01 09:46 | 46.79627 | 7.00381 | 27852 ft | 451 kts | 230° |
| 2026-05-01 09:46 | 46.77652 | 6.96815 | 28176 ft | 453 kts | 230° |
| 2026-05-01 09:46 | 46.75667 | 6.93236 | 28500 ft | 455 kts | 230° |
| 2026-05-01 09:46 | 46.73674 | 6.89641 | 28812 ft | 456 kts | 230° |
| 2026-05-01 09:47 | 46.71705 | 6.86095 | 29130 ft | 457 kts | 230° |
| 2026-05-01 09:47 | 46.69702 | 6.82496 | 29429 ft | 458 kts | 230° |
| 2026-05-01 09:47 | 46.67686 | 6.78885 | 29711 ft | 460 kts | 230° |
| 2026-05-01 09:47 | 46.65656 | 6.75267 | 29989 ft | 462 kts | 229° |
| 2026-05-01 09:48 | 46.63556 | 6.71719 | 30248 ft | 463 kts | 227° |
| 2026-05-01 09:48 | 46.61379 | 6.68264 | 30479 ft | 464 kts | 226° |
| 2026-05-01 09:48 | 46.59081 | 6.64962 | 30683 ft | 464 kts | 217° |
| 2026-05-01 09:48 | 46.56354 | 6.62471 | 30930 ft | 461 kts | 203° |
| 2026-05-01 09:49 | 46.53425 | 6.60588 | 31218 ft | 460 kts | 202° |
| 2026-05-01 09:49 | 46.50488 | 6.58742 | 31510 ft | 459 kts | 201° |
| 2026-05-01 09:49 | 46.47497 | 6.57174 | 31796 ft | 457 kts | 197° |
| 2026-05-01 09:49 | 46.44481 | 6.55714 | 32083 ft | 456 kts | 197° |
| 2026-05-01 09:50 | 46.41469 | 6.54309 | 32379 ft | 455 kts | 196° |
| 2026-05-01 09:50 | 46.38456 | 6.52926 | 32672 ft | 454 kts | 196° |
| 2026-05-01 09:50 | 46.35455 | 6.51552 | 32982 ft | 452 kts | 196° |
| 2026-05-01 09:50 | 46.32461 | 6.50174 | 33286 ft | 450 kts | 197° |
| 2026-05-01 09:51 | 46.29481 | 6.48791 | 33595 ft | 449 kts | 197° |
| 2026-05-01 09:51 | 46.26509 | 6.47403 | 33891 ft | 448 kts | 197° |
| 2026-05-01 09:51 | 46.23546 | 6.46015 | 34183 ft | 447 kts | 197° |
| 2026-05-01 09:51 | 46.20583 | 6.44630 | 34440 ft | 446 kts | 197° |
| 2026-05-01 09:52 | 46.17627 | 6.43249 | 34681 ft | 446 kts | 197° |
| 2026-05-01 09:52 | 46.14683 | 6.41874 | 34934 ft | 444 kts | 197° |
| 2026-05-01 09:52 | 46.11743 | 6.40507 | 35173 ft | 443 kts | 197° |
| 2026-05-01 09:52 | 46.08807 | 6.39143 | 35293 ft | 444 kts | 197° |
| 2026-05-01 09:53 | 46.02935 | 6.36426 | 35299 ft | 442 kts | 197° |
| 2026-05-01 09:53 | 45.97073 | 6.33719 | 35297 ft | 443 kts | 197° |
| 2026-05-01 09:54 | 45.91230 | 6.31015 | 35299 ft | 439 kts | 197° |
| 2026-05-01 09:54 | 45.85456 | 6.28356 | 35299 ft | 438 kts | 197° |
| 2026-05-01 09:55 | 45.79647 | 6.25690 | 35297 ft | 438 kts | 198° |
| 2026-05-01 09:55 | 45.73838 | 6.23023 | 35293 ft | 438 kts | 197° |
| 2026-05-01 09:56 | 45.68036 | 6.20366 | 35290 ft | 438 kts | 197° |
| 2026-05-01 09:56 | 45.62228 | 6.17723 | 35292 ft | 438 kts | 197° |
| 2026-05-01 09:57 | 45.56416 | 6.15074 | 35292 ft | 439 kts | 198° |
| 2026-05-01 09:57 | 45.50595 | 6.12418 | 35292 ft | 439 kts | 198° |
| 2026-05-01 09:58 | 45.44769 | 6.09783 | 35294 ft | 439 kts | 198° |
| 2026-05-01 09:58 | 45.38928 | 6.07148 | 35499 ft | 442 kts | 199° |
| 2026-05-01 09:59 | 45.35993 | 6.05822 | 35650 ft | 443 kts | 199° |
| 2026-05-01 09:59 | 45.33054 | 6.04496 | 35837 ft | 444 kts | 199° |
| 2026-05-01 09:59 | 45.30112 | 6.03167 | 36037 ft | 443 kts | 199° |
| 2026-05-01 09:59 | 45.27170 | 6.01841 | 36236 ft | 443 kts | 199° |
| 2026-05-01 10:00 | 45.24232 | 6.00517 | 36431 ft | 443 kts | 199° |
| 2026-05-01 10:00 | 45.21291 | 5.99194 | 36616 ft | 443 kts | 200° |
| 2026-05-01 10:00 | 45.18351 | 5.97874 | 36773 ft | 444 kts | 200° |
| 2026-05-01 10:00 | 45.15410 | 5.96528 | 36948 ft | 443 kts | 203° |
| 2026-05-01 10:01 | 45.12543 | 5.94951 | 37126 ft | 442 kts | 204° |
| 2026-05-01 10:01 | 45.09698 | 5.93302 | 37267 ft | 442 kts | 205° |
| 2026-05-01 10:01 | 45.04038 | 5.89897 | 37307 ft | 442 kts | 205° |
| 2026-05-01 10:02 | 44.98371 | 5.86490 | 37309 ft | 443 kts | 205° |
| 2026-05-01 10:02 | 44.92687 | 5.83130 | 37307 ft | 443 kts | 205° |
| 2026-05-01 10:03 | 44.87024 | 5.79815 | 37311 ft | 443 kts | 205° |
| 2026-05-01 10:03 | 44.81332 | 5.76491 | 37309 ft | 443 kts | 205° |
| 2026-05-01 10:04 | 44.75635 | 5.73159 | 37308 ft | 444 kts | 205° |
| 2026-05-01 10:04 | 44.69933 | 5.69834 | 37315 ft | 443 kts | 205° |
| 2026-05-01 10:05 | 44.64240 | 5.66522 | 37322 ft | 442 kts | 205° |
| 2026-05-01 10:05 | 44.58556 | 5.63212 | 37321 ft | 442 kts | 205° |
| 2026-05-01 10:06 | 44.52851 | 5.59889 | 37310 ft | 447 kts | 205° |
| 2026-05-01 10:06 | 44.48013 | 5.57089 | 37310 ft | 451 kts | 205° |
| 2026-05-01 10:07 | 44.42223 | 5.53751 | 37309 ft | 455 kts | 205° |
| 2026-05-01 10:07 | 44.36359 | 5.50375 | 37310 ft | 457 kts | 205° |
| 2026-05-01 10:08 | 44.27524 | 5.45309 | 37301 ft | 458 kts | 205° |
| 2026-05-01 10:09 | 44.19577 | 5.40760 | 37304 ft | 458 kts | 205° |
| 2026-05-01 10:09 | 44.07770 | 5.33997 | 37297 ft | 459 kts | 205° |
| 2026-05-01 10:10 | 43.95959 | 5.27292 | 37314 ft | 458 kts | 205° |
| 2026-05-01 10:10 | 43.86781 | 5.22097 | 37310 ft | 458 kts | 205° |
| 2026-05-01 10:11 | 43.80887 | 5.18762 | 37311 ft | 457 kts | 205° |
| 2026-05-01 10:11 | 43.74987 | 5.15444 | 37312 ft | 457 kts | 205° |
| 2026-05-01 10:12 | 43.69087 | 5.12139 | 37306 ft | 457 kts | 205° |
| 2026-05-01 10:13 | 43.60240 | 5.07176 | 37309 ft | 458 kts | 205° |
| 2026-05-01 10:13 | 43.54342 | 5.03865 | 37311 ft | 458 kts | 205° |
| 2026-05-01 10:14 | 43.45489 | 4.98920 | 37306 ft | 458 kts | 204° |
| 2026-05-01 10:14 | 43.39580 | 4.95638 | 37308 ft | 458 kts | 204° |
| 2026-05-01 10:15 | 43.33685 | 4.92342 | 37312 ft | 457 kts | 205° |
| 2026-05-01 10:15 | 43.22522 | 4.85584 | 37313 ft | 456 kts | 206° |
| 2026-05-01 10:16 | 43.10915 | 4.78590 | 37309 ft | 455 kts | 206° |
| 2026-05-01 10:17 | 42.95068 | 4.69167 | 37311 ft | 454 kts | 205° |
| 2026-05-01 10:17 | 42.86373 | 4.63988 | 37303 ft | 455 kts | 206° |
| 2026-05-01 10:18 | 42.60092 | 4.48496 | 37299 ft | 454 kts | 205° |
| 2026-05-01 10:19 | 42.36894 | 4.34926 | 37281 ft | 454 kts | 207° |
| 2026-05-01 10:19 | 42.13673 | 4.21450 | 37295 ft | 455 kts | 205° |
| 2026-05-01 10:20 | 41.87588 | 4.06448 | 37299 ft | 451 kts | 205° |
| 2026-05-01 10:20 | 41.81823 | 4.03154 | 37298 ft | 450 kts | 205° |
| 2026-05-01 10:21 | 41.73237 | 3.98250 | 37286 ft | 449 kts | 205° |
| 2026-05-01 10:22 | 41.64628 | 3.93344 | 37284 ft | 448 kts | 205° |
| 2026-05-01 10:23 | 41.56041 | 3.88480 | 37281 ft | 447 kts | 205° |
| 2026-05-01 10:23 | 41.47468 | 3.83625 | 37262 ft | 446 kts | 205° |
| 2026-05-01 10:24 | 41.15130 | 3.65487 | 37236 ft | 444 kts | 204° |
| 2026-05-01 10:25 | 41.03739 | 3.59119 | 37230 ft | 444 kts | 204° |
| 2026-05-01 10:26 | 40.98037 | 3.55943 | 37224 ft | 445 kts | 204° |
| 2026-05-01 10:26 | 40.92420 | 3.52826 | 37224 ft | 432 kts | 204° |
| 2026-05-01 10:27 | 40.86898 | 3.49765 | 36916 ft | 430 kts | 204° |
| 2026-05-01 10:27 | 40.81375 | 3.46700 | 35566 ft | 432 kts | 204° |
| 2026-05-01 10:28 | 40.78630 | 3.45181 | 34747 ft | 435 kts | 204° |
| 2026-05-01 10:28 | 40.73011 | 3.42082 | 32892 ft | 441 kts | 204° |
| 2026-05-01 10:28 | 40.70177 | 3.40519 | 31961 ft | 443 kts | 204° |
| 2026-05-01 10:29 | 40.64534 | 3.37407 | 30776 ft | 434 kts | 204° |
| 2026-05-01 10:29 | 40.61761 | 3.35883 | 30173 ft | 430 kts | 204° |
| 2026-05-01 10:30 | 40.56290 | 3.32885 | 28975 ft | 421 kts | 204° |
| 2026-05-01 10:30 | 40.50934 | 3.29956 | 27846 ft | 413 kts | 204° |
| 2026-05-01 10:31 | 40.45674 | 3.27085 | 26746 ft | 406 kts | 204° |
| 2026-05-01 10:31 | 40.40489 | 3.24255 | 25681 ft | 401 kts | 204° |
| 2026-05-01 10:32 | 40.35367 | 3.21470 | 24654 ft | 396 kts | 204° |
| 2026-05-01 10:32 | 40.32828 | 3.20087 | 24159 ft | 394 kts | 203° |
| 2026-05-01 10:32 | 40.25505 | 3.16101 | 22728 ft | 385 kts | 204° |
| 2026-05-01 10:33 | 40.15778 | 3.10825 | 20923 ft | 372 kts | 204° |
| 2026-05-01 10:33 | 40.06318 | 3.05701 | 19047 ft | 365 kts | 204° |
| 2026-05-01 10:34 | 40.01629 | 3.03181 | 18039 ft | 364 kts | 204° |
| 2026-05-01 10:34 | 39.96987 | 3.00691 | 17102 ft | 358 kts | 203° |
| 2026-05-01 10:34 | 39.94112 | 2.99145 | 16531 ft | 355 kts | 203° |
| 2026-05-01 10:35 | 39.89566 | 2.96705 | 15613 ft | 352 kts | 204° |
| 2026-05-01 10:35 | 39.87307 | 2.95497 | 15163 ft | 350 kts | 204° |
| 2026-05-01 10:35 | 39.85099 | 2.94210 | 14853 ft | 343 kts | 211° |
| 2026-05-01 10:35 | 39.83202 | 2.92442 | 14734 ft | 330 kts | 224° |
| 2026-05-01 10:36 | 39.80485 | 2.87919 | 14480 ft | 308 kts | 237° |
| 2026-05-01 10:36 | 39.79296 | 2.85653 | 14360 ft | 298 kts | 237° |
| 2026-05-01 10:36 | 39.78144 | 2.83463 | 14244 ft | 289 kts | 236° |
| 2026-05-01 10:37 | 39.77017 | 2.81323 | 14045 ft | 286 kts | 236° |
| 2026-05-01 10:37 | 39.74783 | 2.77091 | 13513 ft | 281 kts | 236° |
| 2026-05-01 10:37 | 39.73683 | 2.75006 | 13197 ft | 280 kts | 236° |
| 2026-05-01 10:38 | 39.72585 | 2.72925 | 12909 ft | 278 kts | 236° |
| 2026-05-01 10:38 | 39.71495 | 2.70862 | 12410 ft | 276 kts | 236° |
| 2026-05-01 10:38 | 39.70416 | 2.68811 | 11926 ft | 273 kts | 236° |
| 2026-05-01 10:38 | 39.69352 | 2.66782 | 11425 ft | 270 kts | 236° |
| 2026-05-01 10:39 | 39.68298 | 2.64773 | 10924 ft | 268 kts | 235° |
| 2026-05-01 10:39 | 39.67250 | 2.62775 | 10403 ft | 267 kts | 235° |
| 2026-05-01 10:39 | 39.66205 | 2.60790 | 9887 ft | 265 kts | 235° |
| 2026-05-01 10:39 | 39.65180 | 2.58846 | 9374 ft | 262 kts | 236° |
| 2026-05-01 10:40 | 39.64159 | 2.56908 | 8963 ft | 259 kts | 235° |
| 2026-05-01 10:40 | 39.63142 | 2.54978 | 8568 ft | 258 kts | 234° |
| 2026-05-01 10:40 | 39.62128 | 2.53051 | 8175 ft | 258 kts | 234° |
| 2026-05-01 10:40 | 39.61114 | 2.51129 | 7781 ft | 258 kts | 234° |
| 2026-05-01 10:41 | 39.60099 | 2.49207 | 7395 ft | 258 kts | 234° |
| 2026-05-01 10:41 | 39.59088 | 2.47293 | 7189 ft | 258 kts | 233° |
| 2026-05-01 10:41 | 39.57049 | 2.43457 | 6913 ft | 258 kts | 232° |
| 2026-05-01 10:42 | 39.55771 | 2.41874 | 6212 ft | 254 kts | 205° |
| 2026-05-01 10:42 | 39.54089 | 2.41338 | 5560 ft | 250 kts | 175° |
| 2026-05-01 10:42 | 39.52450 | 2.41949 | 4935 ft | 245 kts | 146° |
| 2026-05-01 10:42 | 39.51058 | 2.43212 | 4287 ft | 244 kts | 142° |
| 2026-05-01 10:43 | 39.49696 | 2.44490 | 3838 ft | 240 kts | 141° |
| 2026-05-01 10:43 | 39.48351 | 2.45755 | 3478 ft | 237 kts | 141° |
| 2026-05-01 10:43 | 39.47062 | 2.46963 | 3401 ft | 223 kts | 141° |
| 2026-05-01 10:43 | 39.45928 | 2.48273 | 3334 ft | 216 kts | 121° |
| 2026-05-01 10:44 | 39.45419 | 2.50056 | 3253 ft | 212 kts | 92° |
| 2026-05-01 10:44 | 39.45666 | 2.51906 | 3166 ft | 211 kts | 64° |
| 2026-05-01 10:44 | 39.46404 | 2.53550 | 3073 ft | 212 kts | 59° |
| 2026-05-01 10:44 | 39.47174 | 2.55187 | 2810 ft | 210 kts | 59° |
| 2026-05-01 10:45 | 39.47920 | 2.56758 | 2543 ft | 199 kts | 59° |
| 2026-05-01 10:45 | 39.48629 | 2.58250 | 2294 ft | 191 kts | 59° |
| 2026-05-01 10:45 | 39.49321 | 2.59704 | 2038 ft | 188 kts | 59° |
| 2026-05-01 10:45 | 39.50007 | 2.61149 | 1787 ft | 187 kts | 59° |
| 2026-05-01 10:46 | 39.50689 | 2.62584 | 1527 ft | 187 kts | 59° |
| 2026-05-01 10:46 | 39.51361 | 2.63997 | 1321 ft | 179 kts | 59° |
| 2026-05-01 10:46 | 39.51993 | 2.65330 | 1058 ft | 169 kts | 59° |
| 2026-05-01 10:46 | 39.52582 | 2.66571 | 834 ft | 155 kts | 59° |
| 2026-05-01 10:47 | 39.53118 | 2.67701 | 675 ft | 139 kts | 60° |
| 2026-05-01 10:47 | 39.53615 | 2.68750 | 488 ft | 137 kts | 57° |
| 2026-05-01 10:47 | 39.54116 | 2.69765 | 277 ft | 129 kts | 58° |
| 2026-05-01 10:47 | 39.54583 | 2.70776 | 161 ft | 129 kts | 60° |
| 2026-05-01 10:48 | 39.55020 | 2.71708 | 42 ft | 111 kts | 58° |
| 2026-05-01 10:48 | 39.55329 | 2.72359 | 38 ft | 45 kts | 59° |
| 2026-05-01 10:48 | 39.55420 | 2.72556 | 37 ft | 32 kts | 59° |
| 2026-05-01 10:48 | 39.55494 | 2.72842 | 38 ft | 32 kts | 88° |
| 2026-05-01 10:49 | 39.55499 | 2.73048 | 38 ft | 9 kts | 88° |
| 2026-05-01 10:49 | 39.55475 | 2.73102 | 38 ft | 8 kts | 188° |
| 2026-05-01 10:49 | 39.55451 | 2.73054 | 38 ft | 6 kts | 240° |
| 2026-05-01 10:49 | 39.55417 | 2.72987 | 38 ft | 14 kts | 224° |
| 2026-05-01 10:50 | 39.55320 | 2.73017 | 38 ft | 14 kts | 150° |
| 2026-05-01 10:50 | 39.55290 | 2.73118 | 38 ft | 14 kts | 62° |
| 2026-05-01 10:50 | 39.55343 | 2.73235 | 38 ft | 16 kts | 59° |
| 2026-05-01 10:50 | 39.55404 | 2.73363 | 38 ft | 18 kts | 58° |
| 2026-05-01 10:51 | 39.55398 | 2.73460 | 38 ft | 8 kts | 163° |
| 2026-05-01 10:51 | 39.55337 | 2.73507 | 38 ft | 16 kts | 144° |
| 2026-05-01 10:51 | 39.55239 | 2.73587 | 38 ft | 18 kts | 148° |
| 2026-05-01 10:51 | 39.55144 | 2.73630 | 38 ft | 12 kts | 187° |
| 2026-05-01 10:52 | 39.55093 | 2.73619 | 38 ft | 2 kts | 189° |
| 2026-05-01 10:52 | 39.55086 | 2.73618 | 38 ft | 0 kts | 189° |